To NAV CANADA Home Page Login to a new session Search on AWWS site Feedback and Comments Disclaimer Vers la page française équivalente Tips FAQ What's new on the site To the Forecasts and Observations / NOTAM section To "File a Flight Plan" website Publications and other links Update of the User's profile FIC Telephone Numbers My Weather Data Folder Route Weather Data Regional Weather Data Local Weather Data To the Forecasts and Observations / NOTAM section
Request Generated 02/13/2016 at 06:36:39 UTC . Weather information available at that time is displayed.

METAR/TAF

WINDSOR/ON    

METAR CYQG 130600Z 34020G27KT 15SM FEW080 M14/M23 A3025 RMK AC1
SLP257=
METAR CYQG 130500Z 34018G23KT 15SM FEW075 M13/M22 A3022 RMK AC1
SLP246=
METAR CYQG 130400Z 32019G25KT 15SM FEW072 M12/M20 A3018 RMK AC1
SLP235=

TAF CYQG 130538Z 1306/1406 34015G25KT P6SM FEW070 TEMPO 1306/1312 5SM
-SN BKN030 PROB30 1306/1309 21/2SM -SN BKN025
FM131200 33012KT P6SM SCT040
BECMG 1320/1322 32008KT
FM140000 35003KT 6SM -SN BKN030
FM140300 04003KT P6SM SCT030
RMK NXT FCST BY 131200Z=
Your time UTC time
Weather data provided by Environment Canada and NAV CANADA